sensor_id;sensor_type;location;lat;lon;timestamp;temperature;humidity
69208;SHT31;70114;47.690;8.898;2023-07-30T00:01:50;18.31;82.85
69208;SHT31;70114;47.690;8.898;2023-07-30T00:04:15;18.39;82.77
69208;SHT31;70114;47.690;8.898;2023-07-30T00:06:41;18.31;83.04
69208;SHT31;70114;47.690;8.898;2023-07-30T00:09:06;18.35;82.95
69208;SHT31;70114;47.690;8.898;2023-07-30T00:11:32;18.32;82.96
69208;SHT31;70114;47.690;8.898;2023-07-30T00:13:57;18.36;82.71
69208;SHT31;70114;47.690;8.898;2023-07-30T00:16:25;18.35;82.92
69208;SHT31;70114;47.690;8.898;2023-07-30T00:18:51;18.36;82.86
69208;SHT31;70114;47.690;8.898;2023-07-30T00:21:16;18.44;82.65
69208;SHT31;70114;47.690;8.898;2023-07-30T00:23:41;18.28;83.13
69208;SHT31;70114;47.690;8.898;2023-07-30T00:26:06;18.25;83.50
69208;SHT31;70114;47.690;8.898;2023-07-30T00:28:32;18.31;83.15
69208;SHT31;70114;47.690;8.898;2023-07-30T00:30:57;18.18;83.48
69208;SHT31;70114;47.690;8.898;2023-07-30T00:33:23;18.18;83.69
69208;SHT31;70114;47.690;8.898;2023-07-30T00:35:51;18.14;83.90
69208;SHT31;70114;47.690;8.898;2023-07-30T00:38:16;18.22;83.54
69208;SHT31;70114;47.690;8.898;2023-07-30T00:40:43;18.22;83.50
69208;SHT31;70114;47.690;8.898;2023-07-30T00:43:09;18.25;83.44
69208;SHT31;70114;47.690;8.898;2023-07-30T00:45:34;18.19;83.77
69208;SHT31;70114;47.690;8.898;2023-07-30T00:48:00;18.17;83.78
69208;SHT31;70114;47.690;8.898;2023-07-30T00:50:26;18.18;83.80
69208;SHT31;70114;47.690;8.898;2023-07-30T00:52:51;18.12;83.91
69208;SHT31;70114;47.690;8.898;2023-07-30T00:55:17;18.12;83.93
69208;SHT31;70114;47.690;8.898;2023-07-30T00:57:42;18.18;83.68
69208;SHT31;70114;47.690;8.898;2023-07-30T01:00:09;18.21;83.71
69208;SHT31;70114;47.690;8.898;2023-07-30T01:02:37;18.17;83.58
69208;SHT31;70114;47.690;8.898;2023-07-30T01:05:03;18.21;83.51
69208;SHT31;70114;47.690;8.898;2023-07-30T01:07:29;18.12;83.88
69208;SHT31;70114;47.690;8.898;2023-07-30T01:09:55;18.18;83.48
69208;SHT31;70114;47.690;8.898;2023-07-30T01:12:21;18.12;83.66
69208;SHT31;70114;47.690;8.898;2023-07-30T01:14:47;18.08;83.84
69208;SHT31;70114;47.690;8.898;2023-07-30T01:17:13;18.07;83.89
69208;SHT31;70114;47.690;8.898;2023-07-30T01:19:39;18.05;83.91
69208;SHT31;70114;47.690;8.898;2023-07-30T01:22:04;18.07;83.77
69208;SHT31;70114;47.690;8.898;2023-07-30T01:24:29;18.02;84.16
69208;SHT31;70114;47.690;8.898;2023-07-30T01:27:01;18.07;83.79
69208;SHT31;70114;47.690;8.898;2023-07-30T01:29:36;18.04;83.92
69208;SHT31;70114;47.690;8.898;2023-07-30T01:32:05;18.02;84.07
69208;SHT31;70114;47.690;8.898;2023-07-30T01:34:35;18.11;83.66
69208;SHT31;70114;47.690;8.898;2023-07-30T01:37:00;18.09;83.78
69208;SHT31;70114;47.690;8.898;2023-07-30T01:39:27;18.02;84.15
69208;SHT31;70114;47.690;8.898;2023-07-30T01:41:54;18.00;84.20
69208;SHT31;70114;47.690;8.898;2023-07-30T01:44:20;18.04;84.23
69208;SHT31;70114;47.690;8.898;2023-07-30T01:46:45;17.94;84.38
69208;SHT31;70114;47.690;8.898;2023-07-30T01:49:10;18.01;83.88
69208;SHT31;70114;47.690;8.898;2023-07-30T01:51:36;17.98;84.05
69208;SHT31;70114;47.690;8.898;2023-07-30T01:54:01;17.98;83.85
69208;SHT31;70114;47.690;8.898;2023-07-30T01:56:26;18.01;83.67
69208;SHT31;70114;47.690;8.898;2023-07-30T01:58:52;18.07;83.60
69208;SHT31;70114;47.690;8.898;2023-07-30T02:01:17;18.09;83.17
69208;SHT31;70114;47.690;8.898;2023-07-30T02:03:42;18.05;83.47
69208;SHT31;70114;47.690;8.898;2023-07-30T02:06:08;17.97;83.98
69208;SHT31;70114;47.690;8.898;2023-07-30T02:08:33;18.02;83.62
69208;SHT31;70114;47.690;8.898;2023-07-30T02:10:59;18.02;83.75
69208;SHT31;70114;47.690;8.898;2023-07-30T02:13:25;18.01;83.52
69208;SHT31;70114;47.690;8.898;2023-07-30T02:15:51;17.94;84.24
69208;SHT31;70114;47.690;8.898;2023-07-30T02:18:16;17.93;83.88
69208;SHT31;70114;47.690;8.898;2023-07-30T02:20:42;17.93;84.06
69208;SHT31;70114;47.690;8.898;2023-07-30T02:23:07;17.96;84.17
69208;SHT31;70114;47.690;8.898;2023-07-30T02:25:33;17.88;84.36
69208;SHT31;70114;47.690;8.898;2023-07-30T02:27:59;17.93;84.32
69208;SHT31;70114;47.690;8.898;2023-07-30T02:30:26;17.91;83.88
69208;SHT31;70114;47.690;8.898;2023-07-30T02:32:51;17.97;83.75
69208;SHT31;70114;47.690;8.898;2023-07-30T02:35:17;17.93;83.56
69208;SHT31;70114;47.690;8.898;2023-07-30T02:37:42;17.93;83.45
69208;SHT31;70114;47.690;8.898;2023-07-30T02:40:08;17.88;83.74
69208;SHT31;70114;47.690;8.898;2023-07-30T02:42:33;17.91;83.47
69208;SHT31;70114;47.690;8.898;2023-07-30T02:44:59;17.86;83.93
69208;SHT31;70114;47.690;8.898;2023-07-30T02:47:24;17.86;83.71
69208;SHT31;70114;47.690;8.898;2023-07-30T02:49:50;17.80;84.20
69208;SHT31;70114;47.690;8.898;2023-07-30T02:52:15;17.83;84.14
69208;SHT31;70114;47.690;8.898;2023-07-30T02:54:40;17.77;84.15
69208;SHT31;70114;47.690;8.898;2023-07-30T02:57:06;17.74;84.46
69208;SHT31;70114;47.690;8.898;2023-07-30T02:59:31;17.74;84.43
69208;SHT31;70114;47.690;8.898;2023-07-30T03:02:01;17.70;84.66
69208;SHT31;70114;47.690;8.898;2023-07-30T03:04:26;17.69;84.61
69208;SHT31;70114;47.690;8.898;2023-07-30T03:06:51;17.74;84.70
69208;SHT31;70114;47.690;8.898;2023-07-30T03:09:17;17.73;84.56
69208;SHT31;70114;47.690;8.898;2023-07-30T03:11:42;17.62;85.19
69208;SHT31;70114;47.690;8.898;2023-07-30T03:14:08;17.63;84.87
69208;SHT31;70114;47.690;8.898;2023-07-30T03:16:33;17.69;84.43
69208;SHT31;70114;47.690;8.898;2023-07-30T03:18:58;17.70;84.30
69208;SHT31;70114;47.690;8.898;2023-07-30T03:21:24;17.67;84.68
69208;SHT31;70114;47.690;8.898;2023-07-30T03:23:49;17.63;84.82
69208;SHT31;70114;47.690;8.898;2023-07-30T03:26:14;17.65;85.04
69208;SHT31;70114;47.690;8.898;2023-07-30T03:28:40;17.59;85.30
69208;SHT31;70114;47.690;8.898;2023-07-30T03:31:05;17.54;85.61
69208;SHT31;70114;47.690;8.898;2023-07-30T03:33:31;17.50;85.88
69208;SHT31;70114;47.690;8.898;2023-07-30T03:35:56;17.59;85.67
69208;SHT31;70114;47.690;8.898;2023-07-30T03:38:22;17.54;86.02
69208;SHT31;70114;47.690;8.898;2023-07-30T03:40:47;17.52;86.26
69208;SHT31;70114;47.690;8.898;2023-07-30T03:43:12;17.47;86.39
69208;SHT31;70114;47.690;8.898;2023-07-30T03:45:38;17.50;86.16
69208;SHT31;70114;47.690;8.898;2023-07-30T03:48:03;17.54;86.35
69208;SHT31;70114;47.690;8.898;2023-07-30T03:50:28;17.50;86.40
69208;SHT31;70114;47.690;8.898;2023-07-30T03:52:54;17.47;86.60
69208;SHT31;70114;47.690;8.898;2023-07-30T03:55:19;17.52;86.42
69208;SHT31;70114;47.690;8.898;2023-07-30T03:57:45;17.56;86.31
69208;SHT31;70114;47.690;8.898;2023-07-30T04:00:10;17.53;86.69
69208;SHT31;70114;47.690;8.898;2023-07-30T04:02:36;17.47;86.83
69208;SHT31;70114;47.690;8.898;2023-07-30T04:05:01;17.53;86.68
69208;SHT31;70114;47.690;8.898;2023-07-30T04:07:26;17.52;86.68
69208;SHT31;70114;47.690;8.898;2023-07-30T04:09:52;17.52;86.81
69208;SHT31;70114;47.690;8.898;2023-07-30T04:12:17;17.52;86.91
69208;SHT31;70114;47.690;8.898;2023-07-30T04:14:44;17.47;86.86
69208;SHT31;70114;47.690;8.898;2023-07-30T04:17:09;17.49;86.97
69208;SHT31;70114;47.690;8.898;2023-07-30T04:19:35;17.52;86.74
69208;SHT31;70114;47.690;8.898;2023-07-30T04:22:00;17.56;86.77
69208;SHT31;70114;47.690;8.898;2023-07-30T04:24:25;17.49;87.34
69208;SHT31;70114;47.690;8.898;2023-07-30T04:26:51;17.43;87.30
69208;SHT31;70114;47.690;8.898;2023-07-30T04:29:17;17.45;87.20
69208;SHT31;70114;47.690;8.898;2023-07-30T04:31:42;17.40;87.56
69208;SHT31;70114;47.690;8.898;2023-07-30T04:34:07;17.42;87.47
69208;SHT31;70114;47.690;8.898;2023-07-30T04:36:33;17.40;87.59
69208;SHT31;70114;47.690;8.898;2023-07-30T04:38:58;17.46;87.48
69208;SHT31;70114;47.690;8.898;2023-07-30T04:41:23;17.47;87.35
69208;SHT31;70114;47.690;8.898;2023-07-30T04:43:49;17.54;86.98
69208;SHT31;70114;47.690;8.898;2023-07-30T04:46:14;17.60;86.64
69208;SHT31;70114;47.690;8.898;2023-07-30T04:48:40;17.59;87.01
69208;SHT31;70114;47.690;8.898;2023-07-30T04:51:06;17.65;87.13
69208;SHT31;70114;47.690;8.898;2023-07-30T04:53:31;17.79;86.74
69208;SHT31;70114;47.690;8.898;2023-07-30T04:55:57;17.83;86.43
69208;SHT31;70114;47.690;8.898;2023-07-30T04:58:23;17.91;86.00
69208;SHT31;70114;47.690;8.898;2023-07-30T05:00:49;18.00;85.95
69208;SHT31;70114;47.690;8.898;2023-07-30T05:03:14;18.04;85.88
69208;SHT31;70114;47.690;8.898;2023-07-30T05:05:40;18.19;85.21
69208;SHT31;70114;47.690;8.898;2023-07-30T05:08:06;18.24;85.17
69208;SHT31;70114;47.690;8.898;2023-07-30T05:10:31;18.22;85.15
69208;SHT31;70114;47.690;8.898;2023-07-30T05:12:56;18.18;85.21
69208;SHT31;70114;47.690;8.898;2023-07-30T05:15:22;18.15;85.40
69208;SHT31;70114;47.690;8.898;2023-07-30T05:17:47;18.21;85.55
69208;SHT31;70114;47.690;8.898;2023-07-30T05:20:12;18.07;86.14
69208;SHT31;70114;47.690;8.898;2023-07-30T05:22:38;18.22;85.70
69208;SHT31;70114;47.690;8.898;2023-07-30T05:25:03;18.35;85.55
69208;SHT31;70114;47.690;8.898;2023-07-30T05:27:29;18.38;85.32
69208;SHT31;70114;47.690;8.898;2023-07-30T05:29:56;18.24;85.96
69208;SHT31;70114;47.690;8.898;2023-07-30T05:32:22;18.25;86.26
69208;SHT31;70114;47.690;8.898;2023-07-30T05:34:47;18.24;86.27
69208;SHT31;70114;47.690;8.898;2023-07-30T05:37:12;18.34;85.83
69208;SHT31;70114;47.690;8.898;2023-07-30T05:39:38;18.22;86.36
69208;SHT31;70114;47.690;8.898;2023-07-30T05:42:03;18.32;86.04
69208;SHT31;70114;47.690;8.898;2023-07-30T05:44:29;18.45;85.94
69208;SHT31;70114;47.690;8.898;2023-07-30T05:46:54;18.72;85.18
69208;SHT31;70114;47.690;8.898;2023-07-30T05:49:19;18.73;85.21
69208;SHT31;70114;47.690;8.898;2023-07-30T05:51:45;18.67;85.46
69208;SHT31;70114;47.690;8.898;2023-07-30T05:54:11;18.53;85.06
69208;SHT31;70114;47.690;8.898;2023-07-30T05:56:37;18.63;84.89
69208;SHT31;70114;47.690;8.898;2023-07-30T05:59:02;18.55;85.22
69208;SHT31;70114;47.690;8.898;2023-07-30T06:01:27;18.55;85.26
69208;SHT31;70114;47.690;8.898;2023-07-30T06:03:53;18.53;85.19
69208;SHT31;70114;47.690;8.898;2023-07-30T06:06:18;18.60;85.08
69208;SHT31;70114;47.690;8.898;2023-07-30T06:08:52;18.59;84.83
69208;SHT31;70114;47.690;8.898;2023-07-30T06:11:17;18.86;84.38
69208;SHT31;70114;47.690;8.898;2023-07-30T06:13:43;19.06;84.02
69208;SHT31;70114;47.690;8.898;2023-07-30T06:16:09;19.15;83.78
69208;SHT31;70114;47.690;8.898;2023-07-30T06:18:35;19.03;82.94
69208;SHT31;70114;47.690;8.898;2023-07-30T06:21:00;19.14;81.67
69208;SHT31;70114;47.690;8.898;2023-07-30T06:23:26;19.18;82.08
69208;SHT31;70114;47.690;8.898;2023-07-30T06:25:51;19.21;82.58
69208;SHT31;70114;47.690;8.898;2023-07-30T06:28:17;19.31;81.75
69208;SHT31;70114;47.690;8.898;2023-07-30T06:30:42;19.27;82.26
69208;SHT31;70114;47.690;8.898;2023-07-30T06:33:07;19.35;82.48
69208;SHT31;70114;47.690;8.898;2023-07-30T06:35:33;19.31;82.10
69208;SHT31;70114;47.690;8.898;2023-07-30T06:37:58;19.31;82.02
69208;SHT31;70114;47.690;8.898;2023-07-30T06:40:24;19.41;81.93
69208;SHT31;70114;47.690;8.898;2023-07-30T06:42:49;19.41;81.47
69208;SHT31;70114;47.690;8.898;2023-07-30T06:45:14;19.72;80.60
69208;SHT31;70114;47.690;8.898;2023-07-30T06:47:40;19.86;80.56
69208;SHT31;70114;47.690;8.898;2023-07-30T06:50:06;19.82;80.97
69208;SHT31;70114;47.690;8.898;2023-07-30T06:52:34;19.65;79.62
69208;SHT31;70114;47.690;8.898;2023-07-30T06:55:01;19.63;80.40
69208;SHT31;70114;47.690;8.898;2023-07-30T06:57:27;19.66;80.79
69208;SHT31;70114;47.690;8.898;2023-07-30T06:59:53;19.63;81.14
69208;SHT31;70114;47.690;8.898;2023-07-30T07:02:18;19.72;80.80
69208;SHT31;70114;47.690;8.898;2023-07-30T07:04:43;19.82;80.37
69208;SHT31;70114;47.690;8.898;2023-07-30T07:07:09;19.78;80.52
69208;SHT31;70114;47.690;8.898;2023-07-30T07:09:35;19.83;79.67
69208;SHT31;70114;47.690;8.898;2023-07-30T07:12:00;19.82;79.85
69208;SHT31;70114;47.690;8.898;2023-07-30T07:14:26;19.86;79.31
69208;SHT31;70114;47.690;8.898;2023-07-30T07:16:53;19.85;79.35
69208;SHT31;70114;47.690;8.898;2023-07-30T07:19:19;19.85;79.44
69208;SHT31;70114;47.690;8.898;2023-07-30T07:21:44;19.83;80.00
69208;SHT31;70114;47.690;8.898;2023-07-30T07:24:10;19.93;79.40
69208;SHT31;70114;47.690;8.898;2023-07-30T07:26:35;19.96;78.27
69208;SHT31;70114;47.690;8.898;2023-07-30T07:29:00;20.21;78.31
69208;SHT31;70114;47.690;8.898;2023-07-30T07:31:25;20.23;77.89
69208;SHT31;70114;47.690;8.898;2023-07-30T07:33:52;20.40;78.03
69208;SHT31;70114;47.690;8.898;2023-07-30T07:36:17;20.68;76.88
69208;SHT31;70114;47.690;8.898;2023-07-30T07:38:43;20.68;77.67
69208;SHT31;70114;47.690;8.898;2023-07-30T07:41:14;20.63;74.50
69208;SHT31;70114;47.690;8.898;2023-07-30T07:43:40;20.55;75.78
69208;SHT31;70114;47.690;8.898;2023-07-30T07:46:06;20.37;75.39
69208;SHT31;70114;47.690;8.898;2023-07-30T07:48:38;20.58;75.44
69208;SHT31;70114;47.690;8.898;2023-07-30T07:51:04;20.89;75.05
69208;SHT31;70114;47.690;8.898;2023-07-30T07:53:29;20.76;73.24
69208;SHT31;70114;47.690;8.898;2023-07-30T07:55:54;20.81;73.11
69208;SHT31;70114;47.690;8.898;2023-07-30T07:58:20;20.78;72.43
69208;SHT31;70114;47.690;8.898;2023-07-30T08:00:45;21.04;71.70
69208;SHT31;70114;47.690;8.898;2023-07-30T08:03:10;20.98;72.36
69208;SHT31;70114;47.690;8.898;2023-07-30T08:05:36;20.79;70.97
69208;SHT31;70114;47.690;8.898;2023-07-30T08:08:01;20.92;71.59
69208;SHT31;70114;47.690;8.898;2023-07-30T08:10:26;20.69;71.53
69208;SHT31;70114;47.690;8.898;2023-07-30T08:12:52;20.54;71.15
69208;SHT31;70114;47.690;8.898;2023-07-30T08:15:17;20.57;71.28
69208;SHT31;70114;47.690;8.898;2023-07-30T08:17:42;20.47;71.30
69208;SHT31;70114;47.690;8.898;2023-07-30T08:20:08;20.47;72.03
69208;SHT31;70114;47.690;8.898;2023-07-30T08:22:33;20.51;71.87
69208;SHT31;70114;47.690;8.898;2023-07-30T08:24:59;20.51;71.77
69208;SHT31;70114;47.690;8.898;2023-07-30T08:27:24;20.45;72.22
69208;SHT31;70114;47.690;8.898;2023-07-30T08:29:49;20.54;72.31
69208;SHT31;70114;47.690;8.898;2023-07-30T08:32:15;20.78;72.29
69208;SHT31;70114;47.690;8.898;2023-07-30T08:34:40;20.67;71.72
69208;SHT31;70114;47.690;8.898;2023-07-30T08:37:05;20.72;71.33
69208;SHT31;70114;47.690;8.898;2023-07-30T08:39:31;20.84;70.21
69208;SHT31;70114;47.690;8.898;2023-07-30T08:41:56;20.88;70.40
69208;SHT31;70114;47.690;8.898;2023-07-30T08:44:22;20.89;70.47
69208;SHT31;70114;47.690;8.898;2023-07-30T08:46:48;20.96;69.14
69208;SHT31;70114;47.690;8.898;2023-07-30T08:49:14;21.22;69.13
69208;SHT31;70114;47.690;8.898;2023-07-30T08:51:40;21.26;69.54
69208;SHT31;70114;47.690;8.898;2023-07-30T08:54:07;21.49;67.82
69208;SHT31;70114;47.690;8.898;2023-07-30T08:56:33;21.44;66.81
69208;SHT31;70114;47.690;8.898;2023-07-30T08:58:59;21.54;66.67
69208;SHT31;70114;47.690;8.898;2023-07-30T09:01:30;21.61;67.33
69208;SHT31;70114;47.690;8.898;2023-07-30T09:03:57;21.65;67.35
69208;SHT31;70114;47.690;8.898;2023-07-30T09:06:25;21.79;67.34
69208;SHT31;70114;47.690;8.898;2023-07-30T09:08:50;21.84;67.49
69208;SHT31;70114;47.690;8.898;2023-07-30T09:11:16;21.87;67.07
69208;SHT31;70114;47.690;8.898;2023-07-30T09:13:41;21.78;67.39
69208;SHT31;70114;47.690;8.898;2023-07-30T09:16:14;21.85;67.38
69208;SHT31;70114;47.690;8.898;2023-07-30T09:18:45;21.73;66.29
69208;SHT31;70114;47.690;8.898;2023-07-30T09:21:11;21.70;67.09
69208;SHT31;70114;47.690;8.898;2023-07-30T09:23:47;21.43;65.74
69208;SHT31;70114;47.690;8.898;2023-07-30T09:26:13;21.62;66.67
69208;SHT31;70114;47.690;8.898;2023-07-30T09:28:42;21.74;65.67
69208;SHT31;70114;47.690;8.898;2023-07-30T09:31:08;21.84;64.57
69208;SHT31;70114;47.690;8.898;2023-07-30T09:33:35;21.78;66.11
69208;SHT31;70114;47.690;8.898;2023-07-30T09:36:04;21.79;64.67
69208;SHT31;70114;47.690;8.898;2023-07-30T09:38:30;21.92;64.47
69208;SHT31;70114;47.690;8.898;2023-07-30T09:41:02;21.97;62.50
69208;SHT31;70114;47.690;8.898;2023-07-30T09:43:34;21.85;63.46
69208;SHT31;70114;47.690;8.898;2023-07-30T09:46:04;22.09;64.03
69208;SHT31;70114;47.690;8.898;2023-07-30T09:48:31;22.09;62.78
69208;SHT31;70114;47.690;8.898;2023-07-30T09:51:01;22.20;63.30
69208;SHT31;70114;47.690;8.898;2023-07-30T09:53:32;22.29;63.26
69208;SHT31;70114;47.690;8.898;2023-07-30T09:56:04;22.22;62.92
69208;SHT31;70114;47.690;8.898;2023-07-30T09:58:31;22.08;62.60
69208;SHT31;70114;47.690;8.898;2023-07-30T10:01:00;22.18;62.72
69208;SHT31;70114;47.690;8.898;2023-07-30T10:03:26;22.23;63.00
69208;SHT31;70114;47.690;8.898;2023-07-30T10:05:56;22.42;62.77
69208;SHT31;70114;47.690;8.898;2023-07-30T10:08:26;22.36;62.59
69208;SHT31;70114;47.690;8.898;2023-07-30T10:10:54;22.37;62.64
69208;SHT31;70114;47.690;8.898;2023-07-30T10:13:22;22.78;61.32
69208;SHT31;70114;47.690;8.898;2023-07-30T10:15:48;22.84;61.10
69208;SHT31;70114;47.690;8.898;2023-07-30T10:18:13;22.71;60.51
69208;SHT31;70114;47.690;8.898;2023-07-30T10:20:39;22.75;59.50
69208;SHT31;70114;47.690;8.898;2023-07-30T10:23:05;22.87;59.21
69208;SHT31;70114;47.690;8.898;2023-07-30T10:25:47;22.80;58.81
69208;SHT31;70114;47.690;8.898;2023-07-30T10:31:02;22.83;59.68
69208;SHT31;70114;47.690;8.898;2023-07-30T10:33:51;22.94;58.80
69208;SHT31;70114;47.690;8.898;2023-07-30T10:36:32;23.18;56.93
69208;SHT31;70114;47.690;8.898;2023-07-30T10:41:36;23.53;56.44
69208;SHT31;70114;47.690;8.898;2023-07-30T10:44:02;23.37;55.04
69208;SHT31;70114;47.690;8.898;2023-07-30T10:46:28;23.25;54.32
69208;SHT31;70114;47.690;8.898;2023-07-30T10:48:54;22.98;54.70
69208;SHT31;70114;47.690;8.898;2023-07-30T10:51:20;23.35;54.64
69208;SHT31;70114;47.690;8.898;2023-07-30T10:53:50;23.32;53.91
69208;SHT31;70114;47.690;8.898;2023-07-30T10:56:18;23.00;51.89
69208;SHT31;70114;47.690;8.898;2023-07-30T10:58:49;23.11;51.60
69208;SHT31;70114;47.690;8.898;2023-07-30T11:01:15;23.05;51.40
69208;SHT31;70114;47.690;8.898;2023-07-30T11:03:40;23.31;52.47
69208;SHT31;70114;47.690;8.898;2023-07-30T11:06:06;23.43;52.29
69208;SHT31;70114;47.690;8.898;2023-07-30T11:08:42;23.32;49.85
69208;SHT31;70114;47.690;8.898;2023-07-30T11:11:09;23.48;48.74
69208;SHT31;70114;47.690;8.898;2023-07-30T11:13:41;23.62;48.56
69208;SHT31;70114;47.690;8.898;2023-07-30T11:16:10;23.63;46.50
69208;SHT31;70114;47.690;8.898;2023-07-30T11:18:37;23.55;46.96
69208;SHT31;70114;47.690;8.898;2023-07-30T11:21:06;23.46;45.55
69208;SHT31;70114;47.690;8.898;2023-07-30T11:23:33;23.46;46.85
69208;SHT31;70114;47.690;8.898;2023-07-30T11:26:00;23.43;46.45
69208;SHT31;70114;47.690;8.898;2023-07-30T11:28:33;23.59;45.68
69208;SHT31;70114;47.690;8.898;2023-07-30T11:31:01;23.50;46.36
69208;SHT31;70114;47.690;8.898;2023-07-30T11:33:27;23.56;45.01
69208;SHT31;70114;47.690;8.898;2023-07-30T11:35:59;23.38;44.20
69208;SHT31;70114;47.690;8.898;2023-07-30T11:38:26;23.32;44.83
69208;SHT31;70114;47.690;8.898;2023-07-30T11:40:53;23.41;44.20
69208;SHT31;70114;47.690;8.898;2023-07-30T11:43:20;23.60;44.77
69208;SHT31;70114;47.690;8.898;2023-07-30T11:45:46;23.59;46.50
69208;SHT31;70114;47.690;8.898;2023-07-30T11:48:11;23.56;47.74
69208;SHT31;70114;47.690;8.898;2023-07-30T11:50:51;23.43;47.70
69208;SHT31;70114;47.690;8.898;2023-07-30T11:53:17;23.66;48.19
69208;SHT31;70114;47.690;8.898;2023-07-30T11:55:44;23.98;47.88
69208;SHT31;70114;47.690;8.898;2023-07-30T11:58:11;24.07;47.01
69208;SHT31;70114;47.690;8.898;2023-07-30T12:00:38;24.06;43.95
69208;SHT31;70114;47.690;8.898;2023-07-30T12:03:06;24.17;43.98
69208;SHT31;70114;47.690;8.898;2023-07-30T12:05:35;24.25;42.71
69208;SHT31;70114;47.690;8.898;2023-07-30T12:08:01;24.17;43.26
69208;SHT31;70114;47.690;8.898;2023-07-30T12:10:40;24.27;43.60
69208;SHT31;70114;47.690;8.898;2023-07-30T12:13:19;24.61;44.31
69208;SHT31;70114;47.690;8.898;2023-07-30T12:15:54;24.15;44.21
69208;SHT31;70114;47.690;8.898;2023-07-30T12:18:21;24.56;44.90
69208;SHT31;70114;47.690;8.898;2023-07-30T12:20:47;24.35;44.32
69208;SHT31;70114;47.690;8.898;2023-07-30T12:23:12;24.39;44.29
69208;SHT31;70114;47.690;8.898;2023-07-30T12:25:38;24.34;44.51
69208;SHT31;70114;47.690;8.898;2023-07-30T12:28:04;24.54;45.19
69208;SHT31;70114;47.690;8.898;2023-07-30T12:30:29;24.77;45.19
69208;SHT31;70114;47.690;8.898;2023-07-30T12:32:55;24.63;43.34
69208;SHT31;70114;47.690;8.898;2023-07-30T12:35:21;24.86;42.59
69208;SHT31;70114;47.690;8.898;2023-07-30T12:37:46;25.03;42.25
69208;SHT31;70114;47.690;8.898;2023-07-30T12:40:12;24.73;40.07
69208;SHT31;70114;47.690;8.898;2023-07-30T12:42:37;25.00;40.62
69208;SHT31;70114;47.690;8.898;2023-07-30T12:45:03;24.87;40.92
69208;SHT31;70114;47.690;8.898;2023-07-30T12:47:28;25.17;39.62
69208;SHT31;70114;47.690;8.898;2023-07-30T12:49:54;25.24;37.77
69208;SHT31;70114;47.690;8.898;2023-07-30T12:52:19;25.26;37.40
69208;SHT31;70114;47.690;8.898;2023-07-30T12:54:45;25.41;39.21
69208;SHT31;70114;47.690;8.898;2023-07-30T12:57:10;24.97;37.98
69208;SHT31;70114;47.690;8.898;2023-07-30T12:59:36;25.44;39.46
69208;SHT31;70114;47.690;8.898;2023-07-30T13:02:01;25.34;38.97
69208;SHT31;70114;47.690;8.898;2023-07-30T13:04:27;25.45;39.17
69208;SHT31;70114;47.690;8.898;2023-07-30T13:06:53;25.65;38.71
69208;SHT31;70114;47.690;8.898;2023-07-30T13:09:19;25.54;37.44
69208;SHT31;70114;47.690;8.898;2023-07-30T13:11:44;25.24;36.76
69208;SHT31;70114;47.690;8.898;2023-07-30T13:14:11;25.78;37.02
69208;SHT31;70114;47.690;8.898;2023-07-30T13:16:36;26.02;36.71
69208;SHT31;70114;47.690;8.898;2023-07-30T13:19:02;25.86;36.17
69208;SHT31;70114;47.690;8.898;2023-07-30T13:21:27;26.00;35.76
69208;SHT31;70114;47.690;8.898;2023-07-30T13:23:53;25.95;36.38
69208;SHT31;70114;47.690;8.898;2023-07-30T13:26:18;26.23;33.13
69208;SHT31;70114;47.690;8.898;2023-07-30T13:28:44;26.43;33.67
69208;SHT31;70114;47.690;8.898;2023-07-30T13:31:10;26.60;31.18
69208;SHT31;70114;47.690;8.898;2023-07-30T13:33:36;26.19;30.87
69208;SHT31;70114;47.690;8.898;2023-07-30T13:36:02;26.06;32.00
69208;SHT31;70114;47.690;8.898;2023-07-30T13:38:27;26.12;33.50
69208;SHT31;70114;47.690;8.898;2023-07-30T13:40:53;26.34;31.67
69208;SHT31;70114;47.690;8.898;2023-07-30T13:43:18;26.57;32.13
69208;SHT31;70114;47.690;8.898;2023-07-30T13:45:44;26.48;34.12
69208;SHT31;70114;47.690;8.898;2023-07-30T13:48:10;26.78;33.53
69208;SHT31;70114;47.690;8.898;2023-07-30T13:50:35;26.91;33.19
69208;SHT31;70114;47.690;8.898;2023-07-30T13:53:01;27.19;33.52
69208;SHT31;70114;47.690;8.898;2023-07-30T13:55:26;27.18;32.97
69208;SHT31;70114;47.690;8.898;2023-07-30T13:57:52;26.88;32.64
69208;SHT31;70114;47.690;8.898;2023-07-30T14:00:17;27.06;31.87
69208;SHT31;70114;47.690;8.898;2023-07-30T14:02:43;27.09;32.24
69208;SHT31;70114;47.690;8.898;2023-07-30T14:05:09;27.40;31.91
69208;SHT31;70114;47.690;8.898;2023-07-30T14:07:35;27.40;32.67
69208;SHT31;70114;47.690;8.898;2023-07-30T14:10:01;27.84;32.41
69208;SHT31;70114;47.690;8.898;2023-07-30T14:12:26;27.90;32.00
69208;SHT31;70114;47.690;8.898;2023-07-30T14:14:52;27.97;32.36
69208;SHT31;70114;47.690;8.898;2023-07-30T14:17:17;27.87;31.86
69208;SHT31;70114;47.690;8.898;2023-07-30T14:19:42;27.84;32.02
69208;SHT31;70114;47.690;8.898;2023-07-30T14:22:08;28.26;31.56
69208;SHT31;70114;47.690;8.898;2023-07-30T14:24:33;28.15;31.00
69208;SHT31;70114;47.690;8.898;2023-07-30T14:26:59;28.53;31.93
69208;SHT31;70114;47.690;8.898;2023-07-30T14:29:25;28.21;31.97
69208;SHT31;70114;47.690;8.898;2023-07-30T14:31:50;27.74;32.16
69208;SHT31;70114;47.690;8.898;2023-07-30T14:34:16;28.02;31.61
69208;SHT31;70114;47.690;8.898;2023-07-30T14:36:42;28.74;32.17
69208;SHT31;70114;47.690;8.898;2023-07-30T14:39:07;28.97;31.02
69208;SHT31;70114;47.690;8.898;2023-07-30T14:41:33;29.00;30.86
69208;SHT31;70114;47.690;8.898;2023-07-30T14:43:59;29.00;31.08
69208;SHT31;70114;47.690;8.898;2023-07-30T14:46:24;28.94;30.72
69208;SHT31;70114;47.690;8.898;2023-07-30T14:48:50;28.97;31.35
69208;SHT31;70114;47.690;8.898;2023-07-30T14:51:15;29.19;31.14
69208;SHT31;70114;47.690;8.898;2023-07-30T14:53:41;29.39;31.47
69208;SHT31;70114;47.690;8.898;2023-07-30T14:56:06;29.76;31.69
69208;SHT31;70114;47.690;8.898;2023-07-30T14:58:32;29.29;31.57
69208;SHT31;70114;47.690;8.898;2023-07-30T15:00:57;29.63;30.56
69208;SHT31;70114;47.690;8.898;2023-07-30T15:03:23;29.48;31.27
69208;SHT31;70114;47.690;8.898;2023-07-30T15:05:48;28.86;32.18
69208;SHT31;70114;47.690;8.898;2023-07-30T15:08:14;29.63;31.02
69208;SHT31;70114;47.690;8.898;2023-07-30T15:10:39;29.66;31.21
69208;SHT31;70114;47.690;8.898;2023-07-30T15:13:04;29.93;30.34
69208;SHT31;70114;47.690;8.898;2023-07-30T15:15:30;29.56;30.51
69208;SHT31;70114;47.690;8.898;2023-07-30T15:17:55;29.49;30.75
69208;SHT31;70114;47.690;8.898;2023-07-30T15:20:21;30.28;30.68
69208;SHT31;70114;47.690;8.898;2023-07-30T15:22:46;30.06;30.25
69208;SHT31;70114;47.690;8.898;2023-07-30T15:25:12;29.73;29.67
69208;SHT31;70114;47.690;8.898;2023-07-30T15:27:37;30.13;30.18
69208;SHT31;70114;47.690;8.898;2023-07-30T15:30:03;30.02;29.83